Kezdőlap
METAR-TAF:

METAR-TAF

Repülőterek :

Bad Vöslau, Ausztria

földrajzi szélesség: 47-57-52N, földrajzi hosszúság: 016-15-34E, magasság: 233 m

Jelenlegi meteorológiai megfigyelések

A jelentés 25 perccel ezelõtt készült, 13:00 UTC
Nyugat-északnyugati szél 14 kt széllökések: 26 kt
Hőmérséklet 12°C
Páratartalom 40%
Légköri nyomás

METAR: LOAV 181300Z 29014G26KT 40KM BKN060SC 12/M01

Idő: 14:25 (13:25 UTC)

Előrejelzés

A jelentés 2 órával és 0 perccel ezelõtt készült, 11:25 UTC
Az előrejelzés 18-én 12 óra UTC és 18-én 21 óra UTC között érvényes
Nyugat-északnyugati szél 15 kt
Látótávolság 10 km, vagy több
Kevés felhő 4000 lábon
Szakadozott felhőzet 5000 lábon
18-én 12 óra UTC és 18-én 16 óra UTC között ideiglenes
Nyugat-északnyugati szél 20 kt széllökések: 38 kt
Kevés felhő 5000 lábon

TAF: LOAV 181125Z 1812/1821 29015KT 9999 FEW040 BKN050 TEMPO 1812/1816 30020G38KT FEW050

Meteorológiai megfigyelések és előrejelzések több, mint 4000 repülőtéren (METAR és TAF jelentéseket).

A térképen piros és sárga pontok jelzik az elérhető meteorológiai állomásokat.

Mozgassa az egeret a pont fölött, hogy megjelenjen az állomás neve.

Azután kattintson az időjárási megfigyelések és előrejelzések megtekintéséhez.

A térkép megváltoztatása: kattintson a fekete keresztel jelölt zöld gombra ráközelítéshez, a vonallal jelölt zöld gombra távolításhoz, vagy a zöld nyilakra a szomszédos térképek eléréséhez.


METAR-TAF: